createdAt,value
2018-12-19T13:06:27.877Z,18.50
2018-12-19T13:08:56.871Z,28.85
2018-12-19T13:11:25.817Z,37.50
2018-12-19T13:13:54.928Z,25.85
2018-12-19T13:16:23.845Z,27.93
2018-12-19T13:18:52.900Z,22.70
2018-12-19T13:21:21.972Z,35.25
2018-12-19T13:23:50.898Z,27.87
2018-12-19T13:26:19.897Z,28.73
2018-12-19T13:28:48.966Z,27.17
2018-12-19T13:31:18.008Z,29.35
2018-12-19T13:33:46.945Z,32.60
2018-12-19T13:36:16.021Z,34.48
2018-12-19T13:38:45.016Z,34.67
2018-12-19T13:41:14.008Z,28.92
2018-12-19T13:43:42.995Z,37.33
2018-12-19T13:46:12.951Z,39.15
2018-12-19T13:48:41.892Z,35.45
2018-12-19T13:51:10.917Z,29.10
2018-12-19T13:53:40.633Z,36.50
2018-12-19T13:56:09.575Z,30.70
2018-12-19T13:58:39.207Z,35.58
2018-12-19T14:01:08.252Z,40.78
2018-12-19T14:03:37.268Z,27.60
2018-12-19T14:06:06.252Z,31.33
2018-12-19T14:08:35.281Z,30.02
2018-12-19T14:11:04.260Z,36.42
2018-12-19T14:13:33.375Z,38.75
2018-12-19T14:16:02.370Z,46.55
2018-12-19T14:18:31.309Z,47.67
2018-12-19T14:21:00.326Z,55.43
2018-12-19T14:23:29.306Z,42.75
2018-12-19T14:25:58.385Z,69.20
2018-12-19T14:28:27.567Z,40.55
2018-12-19T14:30:57.646Z,54.10
2018-12-19T14:33:26.696Z,43.73
2018-12-19T14:35:55.689Z,40.67
2018-12-19T14:38:24.599Z,38.58
2018-12-19T14:40:53.595Z,46.25
2018-12-19T14:43:22.588Z,32.45
2018-12-19T14:45:52.731Z,45.17
2018-12-19T14:48:21.705Z,31.90
2018-12-19T14:50:53.088Z,55.83
2018-12-19T14:53:22.120Z,49.27
2018-12-19T14:55:51.058Z,47.48
2018-12-19T14:58:21.346Z,52.10
2018-12-19T15:00:50.542Z,42.33
2018-12-19T15:03:19.493Z,50.65
2018-12-19T15:05:48.521Z,51.28
2018-12-19T15:08:17.579Z,41.55
2018-12-19T15:10:46.665Z,55.48
2018-12-19T15:13:15.716Z,60.65
2018-12-19T15:15:49.780Z,77.30
2018-12-19T15:18:19.339Z,41.73
2018-12-19T15:20:48.300Z,53.65
2018-12-19T15:23:17.270Z,58.83
2018-12-19T15:25:46.400Z,49.45
2018-12-19T15:28:15.401Z,48.02
2018-12-19T15:30:44.662Z,63.85
2018-12-19T15:33:13.711Z,70.05
2018-12-19T15:35:42.633Z,59.40
2018-12-19T15:38:11.577Z,48.50
2018-12-19T15:40:40.574Z,73.85
2018-12-19T15:43:10.481Z,66.65
2018-12-19T15:45:39.388Z,58.08
2018-12-19T15:48:08.368Z,70.90
2018-12-19T15:50:37.308Z,52.48
2018-12-19T15:53:06.240Z,53.55
2018-12-19T15:55:35.244Z,50.33
2018-12-19T15:58:04.196Z,50.15
2018-12-19T16:00:33.181Z,46.85
2018-12-19T16:03:02.865Z,42.03
2018-12-19T16:05:32.812Z,44.65
2018-12-19T16:08:01.906Z,42.45
2018-12-19T16:10:30.796Z,28.95
2018-12-19T16:12:59.789Z,31.73
2018-12-19T16:15:28.769Z,33.92
2018-12-19T16:17:57.660Z,31.52
2018-12-19T16:20:26.618Z,66.12
2018-12-19T16:22:55.729Z,29.63
2018-12-19T16:25:24.694Z,37.13
2018-12-19T16:27:53.701Z,38.95
2018-12-19T16:30:22.713Z,39.87
2018-12-19T16:32:51.681Z,66.20
2018-12-19T16:35:20.614Z,58.15
2018-12-19T16:37:49.697Z,59.85
2018-12-19T16:40:18.712Z,75.70
2018-12-19T16:42:49.142Z,49.40
2018-12-19T16:45:18.115Z,38.17
2018-12-19T16:47:47.109Z,46.00
2018-12-19T16:50:16.145Z,51.27
2018-12-19T16:52:45.092Z,57.15
2018-12-19T16:55:14.580Z,41.65
2018-12-19T16:57:43.629Z,63.52
2018-12-19T17:00:12.589Z,52.98
2018-12-19T17:02:41.473Z,61.73
2018-12-19T17:05:10.485Z,48.02
2018-12-19T17:07:39.454Z,46.48
2018-12-19T17:10:08.881Z,45.30
2018-12-19T17:12:37.852Z,48.23
2018-12-19T17:15:06.891Z,38.63
2018-12-19T17:17:44.889Z,56.77
2018-12-19T17:20:13.784Z,40.05
2018-12-19T17:22:42.720Z,37.75
2018-12-19T17:25:11.803Z,39.05
2018-12-19T17:27:40.890Z,42.62
2018-12-19T17:30:09.812Z,39.42
2018-12-19T17:32:38.757Z,37.00
2018-12-19T17:35:08.169Z,33.13
2018-12-19T17:37:37.025Z,56.60
2018-12-19T17:40:06.405Z,35.08
2018-12-19T17:42:36.024Z,39.25
2018-12-19T17:45:05.374Z,38.92
2018-12-19T17:47:34.336Z,32.00
2018-12-19T17:50:03.204Z,41.15
2018-12-19T17:52:32.776Z,42.43
2018-12-19T17:55:01.714Z,35.80
2018-12-19T17:57:30.578Z,39.40
2018-12-19T17:59:59.480Z,38.50
2018-12-19T18:02:28.439Z,43.83
2018-12-19T18:04:57.318Z,43.87
2018-12-19T18:07:26.212Z,48.92
2018-12-19T18:09:55.818Z,48.08
2018-12-19T18:12:24.686Z,50.40
2018-12-19T18:14:53.614Z,47.85
2018-12-19T18:17:22.597Z,45.67
2018-12-19T18:19:51.463Z,45.48
2018-12-19T18:22:20.320Z,38.53
2018-12-19T18:26:13.544Z,55.95
2018-12-19T18:28:42.426Z,47.58
2018-12-19T18:31:11.300Z,35.30
2018-12-19T18:33:40.236Z,47.45
2018-12-19T18:36:09.129Z,50.55
2018-12-19T18:38:38.012Z,49.67
2018-12-19T18:41:06.957Z,51.73
2018-12-19T18:43:36.811Z,42.35
2018-12-19T18:46:05.775Z,47.90
2018-12-19T18:48:34.830Z,43.17
2018-12-19T18:51:03.700Z,53.40
2018-12-19T18:53:32.564Z,51.45
2018-12-19T18:56:02.161Z,52.15
2018-12-19T18:58:31.051Z,41.80
2018-12-19T19:00:59.933Z,51.00
2018-12-19T19:03:28.862Z,56.68
2018-12-19T19:05:57.732Z,41.73
2018-12-19T19:08:26.618Z,45.90
2018-12-19T19:10:56.566Z,57.48
2018-12-19T19:13:25.441Z,41.90
2018-12-19T19:15:54.296Z,42.30
2018-12-19T19:18:23.316Z,42.07
2018-12-19T19:20:52.186Z,38.30
2018-12-19T19:23:21.110Z,36.85
2018-12-19T19:25:50.029Z,51.83
2018-12-19T19:28:19.907Z,45.43
2018-12-19T19:30:49.789Z,46.70
2018-12-19T19:33:18.804Z,36.73
2018-12-19T19:35:47.705Z,31.90
2018-12-19T19:38:16.572Z,31.97
2018-12-19T19:40:45.527Z,46.13
2018-12-19T19:43:14.406Z,44.43
2018-12-19T19:45:43.268Z,42.37
2018-12-19T19:48:12.474Z,41.88
2018-12-19T19:50:41.322Z,34.90
2018-12-19T19:53:10.252Z,37.60
2018-12-19T19:55:39.272Z,53.83
2018-12-19T19:58:08.149Z,41.50
2018-12-19T20:00:37.009Z,51.43
2018-12-19T20:03:05.949Z,46.70
2018-12-19T20:05:34.805Z,44.77
2018-12-19T20:08:03.663Z,35.63
2018-12-19T20:10:32.610Z,34.37
2018-12-19T20:13:01.509Z,54.77
2018-12-19T20:15:30.436Z,54.63
2018-12-19T20:17:59.431Z,42.17
2018-12-19T20:20:28.422Z,45.10
2018-12-19T20:22:57.326Z,55.17
2018-12-19T20:25:26.322Z,56.70
2018-12-19T20:27:56.037Z,63.97
2018-12-19T20:30:24.917Z,37.43
2018-12-19T20:32:53.848Z,46.77
2018-12-19T20:35:22.711Z,63.17
2018-12-19T20:37:51.554Z,62.37
2018-12-19T20:40:20.496Z,89.37
2018-12-19T20:42:49.357Z,61.67
2018-12-19T20:45:19.061Z,43.17
2018-12-19T20:47:47.971Z,55.77
2018-12-19T20:50:16.852Z,66.30
2018-12-19T20:52:45.932Z,70.35
2018-12-19T20:55:14.860Z,63.30
2018-12-19T20:57:43.833Z,63.07
2018-12-19T21:00:12.721Z,55.43
2018-12-19T21:02:41.910Z,65.33
2018-12-19T21:05:10.761Z,71.97
2018-12-19T21:07:39.604Z,61.10
2018-12-19T21:10:08.739Z,65.30
2018-12-19T21:12:37.591Z,75.13
2018-12-19T21:15:06.937Z,77.83
2018-12-19T21:17:44.161Z,75.10
2018-12-19T21:20:13.053Z,88.80
2018-12-19T21:22:42.010Z,79.77
2018-12-19T21:25:10.989Z,80.63
2018-12-19T21:27:39.848Z,80.27
2018-12-19T21:30:09.477Z,77.83
2018-12-19T21:32:38.388Z,74.77
2018-12-19T21:35:07.329Z,80.97
2018-12-19T21:37:36.184Z,61.27
2018-12-19T21:40:05.489Z,86.43
2018-12-19T21:42:36.993Z,72.90
2018-12-19T21:45:06.150Z,81.00
2018-12-19T21:47:35.138Z,91.37
2018-12-19T21:50:04.207Z,82.10
2018-12-19T21:52:33.237Z,89.47
2018-12-19T21:55:02.272Z,87.10
2018-12-19T21:57:31.202Z,65.90
2018-12-19T22:00:00.300Z,83.53
2018-12-19T22:02:29.354Z,77.85
2018-12-19T22:04:58.374Z,64.87
2018-12-19T22:07:27.564Z,64.13
2018-12-19T22:09:56.499Z,76.63
2018-12-19T22:12:26.483Z,66.53
2018-12-19T22:14:55.444Z,67.33
2018-12-19T22:17:32.951Z,84.07
2018-12-19T22:20:01.978Z,92.88
2018-12-19T22:22:30.892Z,79.47
2018-12-19T22:24:59.913Z,86.53
2018-12-19T22:27:29.033Z,65.50
2018-12-19T22:29:57.930Z,83.23
2018-12-19T22:32:26.906Z,83.10
2018-12-19T22:34:56.032Z,78.40
2018-12-19T22:37:24.924Z,74.80
2018-12-19T22:39:54.004Z,53.17
2018-12-19T22:42:23.009Z,66.30
2018-12-19T22:44:51.912Z,64.03
2018-12-19T22:47:21.697Z,58.68
2018-12-19T22:49:50.933Z,60.40
2018-12-19T22:52:19.937Z,59.57
2018-12-19T22:54:48.852Z,64.20
2018-12-19T22:57:17.907Z,80.57
2018-12-19T22:59:46.864Z,74.10
2018-12-19T23:02:22.135Z,50.07
2018-12-19T23:04:51.111Z,30.67
2018-12-19T23:07:20.080Z,54.40
2018-12-19T23:09:49.070Z,49.23
2018-12-19T23:12:17.994Z,49.43
2018-12-19T23:14:46.955Z,60.50
2018-12-19T23:17:24.580Z,45.63
2018-12-19T23:19:53.478Z,47.03
2018-12-19T23:22:22.422Z,52.87
2018-12-19T23:24:51.459Z,51.40
2018-12-19T23:27:20.602Z,42.87
2018-12-19T23:29:51.340Z,45.48
2018-12-19T23:32:24.545Z,36.47
2018-12-19T23:34:54.666Z,36.30
2018-12-19T23:37:23.708Z,42.20
2018-12-19T23:39:52.684Z,39.40
2018-12-19T23:42:21.849Z,44.48
2018-12-19T23:44:50.836Z,56.07
2018-12-19T23:47:25.938Z,55.00
2018-12-19T23:49:55.698Z,31.20
2018-12-19T23:52:24.588Z,63.25
2018-12-19T23:54:53.646Z,52.30
2018-12-19T23:57:22.637Z,47.50
2018-12-19T23:59:51.564Z,44.55
